createdAt,value
2022-11-18T00:00:40.502Z,-3.99
2022-11-18T00:03:27.843Z,-4.00
2022-11-18T00:06:16.684Z,-4.01
2022-11-18T00:09:04.259Z,-3.98
2022-11-18T00:12:10.281Z,-4.02
2022-11-18T00:14:57.703Z,-4.03
2022-11-18T00:17:45.039Z,-4.05
2022-11-18T00:20:34.190Z,-4.08
2022-11-18T00:23:21.504Z,-4.12
2022-11-18T00:26:13.004Z,-4.12
2022-11-18T00:29:00.389Z,-4.12
2022-11-18T00:31:47.991Z,-4.13
2022-11-18T00:34:35.335Z,-4.15
2022-11-18T00:37:22.689Z,-4.13
2022-11-18T00:40:10.377Z,-4.12
2022-11-18T00:42:57.692Z,-4.11
2022-11-18T00:45:45.040Z,-4.15
2022-11-18T00:48:32.402Z,-4.18
2022-11-18T00:51:19.854Z,-4.14
2022-11-18T00:54:07.280Z,-4.14
2022-11-18T00:56:54.632Z,-4.17
2022-11-18T00:59:41.952Z,-4.18
2022-11-18T01:02:29.332Z,-4.21
2022-11-18T01:05:16.776Z,-4.24
2022-11-18T01:08:04.593Z,-4.22
2022-11-18T01:10:52.422Z,-4.22
2022-11-18T01:13:39.768Z,-4.23
2022-11-18T01:16:28.014Z,-4.21
2022-11-18T01:19:15.689Z,-4.16
2022-11-18T01:22:03.550Z,-4.14
2022-11-18T01:24:51.066Z,-4.13
2022-11-18T01:27:38.430Z,-4.12
2022-11-18T01:30:25.851Z,-4.11
2022-11-18T01:33:13.389Z,-4.09
2022-11-18T01:36:00.742Z,-4.11
2022-11-18T01:38:48.588Z,-4.15
2022-11-18T01:41:35.970Z,-4.19
2022-11-18T01:44:41.881Z,-4.18
2022-11-18T01:47:31.821Z,-4.22
2022-11-18T01:50:20.683Z,-4.23
2022-11-18T01:53:11.065Z,-4.19
2022-11-18T01:56:00.656Z,-4.20
2022-11-18T01:58:59.295Z,-4.21
2022-11-18T02:01:47.288Z,-4.24
2022-11-18T02:04:34.878Z,-4.20
2022-11-18T02:07:22.712Z,-4.17
2022-11-18T02:10:17.080Z,-4.14
2022-11-18T02:13:04.746Z,-4.12
2022-11-18T02:16:15.972Z,-4.11
2022-11-18T02:19:09.776Z,-4.08
2022-11-18T02:22:00.354Z,-4.06
2022-11-18T02:24:47.796Z,-4.06
2022-11-18T02:27:44.322Z,-4.09
2022-11-18T02:30:36.857Z,-4.08
2022-11-18T02:33:28.486Z,-4.04
2022-11-18T02:36:15.965Z,-4.01
2022-11-18T02:39:05.421Z,-3.97
2022-11-18T02:41:54.452Z,-3.95
2022-11-18T02:44:44.171Z,-3.93
2022-11-18T02:47:33.416Z,-3.87
2022-11-18T02:50:23.339Z,-3.84
2022-11-18T02:53:13.334Z,-3.83
2022-11-18T02:56:01.915Z,-3.84
2022-11-18T02:58:49.402Z,-3.86
2022-11-18T03:01:37.129Z,-3.85
2022-11-18T03:04:26.008Z,-3.86
2022-11-18T03:07:19.036Z,-3.87
2022-11-18T03:10:06.757Z,-3.85
2022-11-18T03:13:01.579Z,-3.84
2022-11-18T03:15:59.138Z,-3.87
2022-11-18T03:18:49.667Z,-3.85
2022-11-18T03:21:43.831Z,-3.86
2022-11-18T03:24:33.684Z,-3.83
2022-11-18T03:27:26.514Z,-3.78
2022-11-18T03:30:16.783Z,-3.83
2022-11-18T03:33:08.636Z,-3.85
2022-11-18T03:35:56.930Z,-3.82
2022-11-18T03:38:47.420Z,-3.77
2022-11-18T03:41:38.198Z,-3.73
2022-11-18T03:44:29.187Z,-3.72
2022-11-18T03:47:20.132Z,-3.74
2022-11-18T03:50:33.973Z,-3.75
2022-11-18T03:53:23.347Z,-3.71
2022-11-18T03:56:17.525Z,-3.71
2022-11-18T03:59:10.117Z,-3.67
2022-11-18T04:01:59.967Z,-3.72
2022-11-18T04:04:49.010Z,-3.74
2022-11-18T04:07:49.955Z,-3.75
2022-11-18T04:10:37.304Z,-3.74
2022-11-18T04:13:27.125Z,-3.71
2022-11-18T04:16:14.447Z,-3.69
2022-11-18T04:19:06.216Z,-3.75
2022-11-18T04:21:53.960Z,-3.74
2022-11-18T04:24:41.601Z,-3.71
2022-11-18T04:27:29.036Z,-3.73
2022-11-18T04:30:16.623Z,-3.74
2022-11-18T04:33:05.185Z,-3.75
2022-11-18T04:35:52.567Z,-3.74
2022-11-18T04:38:39.903Z,-3.71
2022-11-18T04:41:47.409Z,-3.66
2022-11-18T04:44:35.224Z,-3.67
2022-11-18T04:47:23.021Z,-3.67
2022-11-18T04:50:10.793Z,-3.64
2022-11-18T04:52:58.663Z,-3.64
2022-11-18T04:55:46.289Z,-3.61
2022-11-18T04:58:34.106Z,-3.62
2022-11-18T05:01:22.197Z,-3.63
2022-11-18T05:04:12.574Z,-3.67
2022-11-18T05:07:01.037Z,-3.70
2022-11-18T05:09:48.873Z,-3.67
2022-11-18T05:12:52.665Z,-3.64
2022-11-18T05:15:40.505Z,-3.64
2022-11-18T05:18:28.063Z,-3.64
2022-11-18T05:21:15.825Z,-3.64
2022-11-18T05:24:04.148Z,-3.63
2022-11-18T05:26:52.559Z,-3.53
2022-11-18T05:29:40.395Z,-3.50
2022-11-18T05:32:28.247Z,-3.49
2022-11-18T05:35:16.224Z,-3.50
2022-11-18T05:38:03.953Z,-3.50
2022-11-18T05:40:51.703Z,-3.48
2022-11-18T05:43:39.316Z,-3.52
2022-11-18T05:46:27.382Z,-3.52
2022-11-18T05:49:15.256Z,-3.51
2022-11-18T05:52:03.433Z,-3.49
2022-11-18T05:54:51.892Z,-3.49
2022-11-18T05:57:39.498Z,-3.49
2022-11-18T06:00:27.811Z,-3.46
2022-11-18T06:03:27.550Z,-3.51
2022-11-18T06:06:20.543Z,-3.56
2022-11-18T06:09:09.039Z,-3.55
2022-11-18T06:11:59.288Z,-3.48
2022-11-18T06:14:50.220Z,-3.47
2022-11-18T06:17:41.451Z,-3.41
2022-11-18T06:20:29.588Z,-3.32
2022-11-18T06:23:17.576Z,-3.27
2022-11-18T06:26:05.475Z,-3.19
2022-11-18T06:28:53.224Z,-3.19
2022-11-18T06:31:40.849Z,-3.24
2022-11-18T06:34:28.499Z,-3.26
2022-11-18T06:37:17.433Z,-3.24
2022-11-18T06:40:05.351Z,-3.21
2022-11-18T06:43:11.618Z,-3.23
2022-11-18T06:46:18.442Z,-3.21
2022-11-18T06:49:06.081Z,-3.18
2022-11-18T06:51:54.276Z,-3.15
2022-11-18T06:54:41.972Z,-3.18
2022-11-18T06:57:29.517Z,-3.13
2022-11-18T07:00:17.510Z,-3.10
2022-11-18T07:03:05.338Z,-3.07
2022-11-18T07:05:53.024Z,-3.02
2022-11-18T07:08:41.372Z,-2.99
2022-11-18T07:11:29.207Z,-2.98
2022-11-18T07:14:16.867Z,-2.89
2022-11-18T07:17:04.452Z,-2.81
2022-11-18T07:19:52.257Z,-2.82
2022-11-18T07:22:39.922Z,-2.90
2022-11-18T07:25:27.529Z,-2.82
2022-11-18T07:28:15.346Z,-2.74
2022-11-18T07:31:03.665Z,-2.73
2022-11-18T07:33:54.802Z,-2.66
2022-11-18T07:36:43.362Z,-2.54
2022-11-18T07:39:30.874Z,-2.48
2022-11-18T07:42:18.617Z,-2.44
2022-11-18T07:45:06.491Z,-2.38
2022-11-18T07:47:54.103Z,-2.31
2022-11-18T07:50:46.854Z,-2.27
2022-11-18T07:53:35.226Z,-2.31
2022-11-18T07:56:23.532Z,-2.32
2022-11-18T07:59:11.244Z,-2.24
2022-11-18T08:02:00.186Z,-2.18
2022-11-18T08:04:47.910Z,-2.22
2022-11-18T08:07:35.861Z,-2.15
2022-11-18T08:10:24.930Z,-2.02
2022-11-18T08:13:12.514Z,-2.02
2022-11-18T08:16:00.162Z,-2.05
2022-11-18T08:18:47.823Z,-2.02
2022-11-18T08:21:35.468Z,-2.07
2022-11-18T08:24:23.071Z,-2.06
2022-11-18T08:27:11.675Z,-2.16
2022-11-18T08:29:59.217Z,-2.26
2022-11-18T08:32:46.987Z,-2.32
2022-11-18T08:35:34.711Z,-2.32
2022-11-18T08:38:22.445Z,-2.27
2022-11-18T08:41:14.670Z,-2.21
2022-11-18T08:44:03.046Z,-2.19
2022-11-18T08:46:51.126Z,-2.15
2022-11-18T08:49:38.746Z,-2.09
2022-11-18T08:52:26.624Z,-1.94
2022-11-18T08:55:14.277Z,-1.94
2022-11-18T08:58:01.750Z,-1.92
2022-11-18T09:00:49.869Z,-1.87
2022-11-18T09:03:37.725Z,-2.04
2022-11-18T09:06:25.374Z,-2.12
2022-11-18T09:09:12.894Z,-2.13
2022-11-18T09:12:00.493Z,-2.02
2022-11-18T09:17:58.906Z,-2.07
2022-11-18T09:20:54.156Z,-2.16
2022-11-18T09:23:41.611Z,-2.27
2022-11-18T09:26:29.096Z,-2.36
2022-11-18T09:29:16.757Z,-2.36
2022-11-18T09:32:04.498Z,-2.32
2022-11-18T09:34:52.009Z,-2.24
2022-11-18T09:37:39.657Z,-2.16
2022-11-18T09:40:27.992Z,-2.09
2022-11-18T09:43:34.501Z,-2.08
2022-11-18T09:46:40.950Z,-2.09
2022-11-18T09:49:39.119Z,-1.98
2022-11-18T09:52:36.177Z,-2.02
2022-11-18T09:55:24.439Z,-2.19
2022-11-18T09:58:32.289Z,-2.16
2022-11-18T10:01:20.928Z,-2.02
2022-11-18T10:04:16.634Z,-1.97
2022-11-18T10:07:08.938Z,-1.97
2022-11-18T10:09:57.309Z,-1.93
2022-11-18T10:12:49.840Z,-2.03
2022-11-18T10:15:39.810Z,-2.07
2022-11-18T10:18:52.756Z,-2.10
2022-11-18T10:21:44.568Z,-2.15
2022-11-18T10:24:43.097Z,-2.08
2022-11-18T10:27:35.796Z,-2.02
2022-11-18T10:30:24.465Z,-1.95
2022-11-18T10:33:23.394Z,-1.97
2022-11-18T10:36:17.190Z,-1.95
2022-11-18T10:39:08.854Z,-1.94
2022-11-18T10:41:58.666Z,-1.96
2022-11-18T10:44:46.713Z,-1.99
2022-11-18T10:47:34.333Z,-1.98
2022-11-18T10:50:35.730Z,-1.97
2022-11-18T10:53:49.380Z,-2.08
2022-11-18T10:56:46.082Z,-2.17
2022-11-18T10:59:40.243Z,-2.19
2022-11-18T11:02:31.200Z,-2.25
2022-11-18T11:05:25.450Z,-2.30
2022-11-18T11:08:36.880Z,-2.34
2022-11-18T11:11:30.131Z,-2.23
2022-11-18T11:14:21.622Z,-2.12
2022-11-18T11:17:12.587Z,-2.04
2022-11-18T11:20:18.759Z,-2.04
2022-11-18T11:23:10.532Z,-2.07
2022-11-18T11:38:33.874Z,-2.00
2022-11-18T11:41:45.783Z,-2.05
2022-11-18T11:44:39.548Z,-2.17
2022-11-18T11:52:04.550Z,-2.24
2022-11-18T11:55:31.172Z,-2.33
2022-11-18T12:03:10.265Z,-2.29
2022-11-18T12:05:57.858Z,-2.26
2022-11-18T12:09:08.493Z,-2.16
2022-11-18T12:12:01.726Z,-2.21
2022-11-18T12:14:54.020Z,-2.22
2022-11-18T12:17:46.652Z,-2.20
2022-11-18T12:20:39.954Z,-2.27
2022-11-18T12:23:28.324Z,-2.29
2022-11-18T12:26:33.616Z,-2.34
2022-11-18T12:29:21.344Z,-2.40
2022-11-18T12:32:27.615Z,-2.42
2022-11-18T12:35:15.001Z,-2.36
2022-11-18T12:38:02.984Z,-2.29
2022-11-18T12:40:53.059Z,-2.23
2022-11-18T12:43:47.002Z,-2.20
2022-11-18T12:46:34.449Z,-2.18
2022-11-18T12:49:22.061Z,-2.27
2022-11-18T12:52:29.866Z,-2.21
2022-11-18T12:55:26.028Z,-2.19
2022-11-18T12:58:23.419Z,-2.24
2022-11-18T13:01:12.459Z,-2.26
2022-11-18T13:04:07.669Z,-2.28
2022-11-18T13:06:56.342Z,-2.34
2022-11-18T13:09:44.600Z,-2.36
2022-11-18T13:12:32.508Z,-2.37
2022-11-18T13:15:39.293Z,-2.46
2022-11-18T13:18:27.314Z,-2.59
2022-11-18T13:21:38.887Z,-2.69
2022-11-18T13:24:26.318Z,-2.70
2022-11-18T13:27:22.008Z,-2.69
2022-11-18T13:30:13.547Z,-2.68
2022-11-18T13:33:00.999Z,-2.68
2022-11-18T13:35:48.482Z,-2.73
2022-11-18T13:38:35.822Z,-2.73
2022-11-18T13:41:24.738Z,-2.79
2022-11-18T13:44:12.862Z,-2.84
2022-11-18T13:47:01.896Z,-2.83
2022-11-18T13:50:16.903Z,-2.85
2022-11-18T13:53:29.916Z,-2.81
2022-11-18T13:56:23.310Z,-2.82
2022-11-18T13:59:24.213Z,-2.90
2022-11-18T14:02:13.468Z,-2.94
2022-11-18T14:05:01.485Z,-2.89
2022-11-18T14:07:59.336Z,-2.87
2022-11-18T14:10:47.335Z,-2.89
2022-11-18T14:13:36.753Z,-2.89
2022-11-18T14:16:24.133Z,-2.92
2022-11-18T14:19:29.079Z,-2.91
2022-11-18T14:22:21.262Z,-2.89
2022-11-18T14:25:14.934Z,-2.88
2022-11-18T14:28:19.113Z,-2.90
2022-11-18T14:31:22.333Z,-2.88
2022-11-18T14:34:18.124Z,-2.95
2022-11-18T14:37:10.403Z,-2.91
2022-11-18T14:39:58.576Z,-2.91
2022-11-18T14:42:46.338Z,-2.92
2022-11-18T14:45:35.045Z,-2.86
2022-11-18T14:48:27.088Z,-2.79
2022-11-18T14:51:17.511Z,-2.73
2022-11-18T14:54:07.473Z,-2.73
2022-11-18T14:56:57.366Z,-2.76
2022-11-18T14:59:45.503Z,-2.75
2022-11-18T15:02:33.231Z,-2.73
2022-11-18T15:05:20.839Z,-2.68
2022-11-18T15:08:08.783Z,-2.68
2022-11-18T15:10:56.600Z,-2.74
2022-11-18T15:13:44.530Z,-2.75
2022-11-18T15:16:33.320Z,-2.82
2022-11-18T15:19:21.034Z,-2.83
2022-11-18T15:22:08.733Z,-2.86
2022-11-18T15:24:59.991Z,-2.82
2022-11-18T15:27:47.835Z,-2.81
2022-11-18T15:30:35.713Z,-2.78
2022-11-18T15:33:23.407Z,-2.77
2022-11-18T15:36:15.258Z,-2.77
2022-11-18T15:39:02.892Z,-2.73
2022-11-18T15:41:50.631Z,-2.75
2022-11-18T15:44:38.459Z,-2.79
2022-11-18T15:47:26.411Z,-2.83
2022-11-18T15:50:21.395Z,-2.80
2022-11-18T15:53:09.213Z,-2.71
2022-11-18T15:56:15.744Z,-2.75
2022-11-18T15:59:05.401Z,-2.75
2022-11-18T16:01:55.454Z,-2.69
2022-11-18T16:04:43.284Z,-2.69
2022-11-18T16:07:31.041Z,-2.69
2022-11-18T16:10:37.627Z,-2.73
2022-11-18T16:13:27.770Z,-2.80
2022-11-18T16:16:22.500Z,-2.79
2022-11-18T16:19:11.648Z,-2.79
2022-11-18T16:22:00.236Z,-2.73
2022-11-18T16:24:48.613Z,-2.68
2022-11-18T16:27:36.671Z,-2.72
2022-11-18T16:30:42.871Z,-2.80
2022-11-18T16:33:30.522Z,-2.77
2022-11-18T16:36:20.370Z,-2.75
2022-11-18T16:39:12.903Z,-2.80
2022-11-18T16:42:07.911Z,-2.79
2022-11-18T16:44:56.592Z,-2.76
2022-11-18T16:47:46.745Z,-2.74
2022-11-18T16:50:34.428Z,-2.71
2022-11-18T16:53:22.247Z,-2.69
2022-11-18T16:56:09.806Z,-2.76
2022-11-18T16:59:01.600Z,-2.72
2022-11-18T17:01:53.357Z,-2.66
2022-11-18T17:04:41.427Z,-2.69
2022-11-18T17:07:35.407Z,-2.76
2022-11-18T17:10:25.876Z,-2.79
2022-11-18T17:13:13.490Z,-2.75
2022-11-18T17:16:05.077Z,-2.72
2022-11-18T17:18:55.778Z,-2.74
2022-11-18T17:21:43.981Z,-2.76
2022-11-18T17:24:31.467Z,-2.75
2022-11-18T17:27:19.479Z,-2.75
2022-11-18T17:30:07.670Z,-2.77
2022-11-18T17:32:55.275Z,-2.74
2022-11-18T17:35:45.564Z,-2.69
2022-11-18T17:38:36.980Z,-2.70
2022-11-18T17:41:44.119Z,-2.71
2022-11-18T17:44:31.629Z,-2.70
2022-11-18T17:47:19.586Z,-2.71
2022-11-18T17:50:07.445Z,-2.65
2022-11-18T17:52:55.000Z,-2.60
2022-11-18T17:55:42.578Z,-2.52
2022-11-18T17:58:30.178Z,-2.53
2022-11-18T18:01:18.948Z,-2.52
2022-11-18T18:04:06.663Z,-2.48
2022-11-18T18:06:55.104Z,-2.45
2022-11-18T18:09:43.141Z,-2.47
2022-11-18T18:12:49.399Z,-2.50
2022-11-18T18:15:37.618Z,-2.52
2022-11-18T18:18:27.691Z,-2.54
2022-11-18T18:21:17.965Z,-2.58
2022-11-18T18:24:06.119Z,-2.57
2022-11-18T18:26:53.887Z,-2.54
2022-11-18T18:29:41.681Z,-2.52
2022-11-18T18:32:29.586Z,-2.52
2022-11-18T18:35:17.018Z,-2.54
2022-11-18T18:38:04.565Z,-2.54
2022-11-18T18:40:52.683Z,-2.54
2022-11-18T18:43:40.219Z,-2.54
2022-11-18T18:46:32.444Z,-2.63
2022-11-18T18:49:22.231Z,-2.70
2022-11-18T18:52:10.742Z,-2.66
2022-11-18T18:54:58.381Z,-2.65
2022-11-18T18:57:46.064Z,-2.62
2022-11-18T19:00:33.634Z,-2.61
2022-11-18T19:03:21.333Z,-2.57
2022-11-18T19:06:47.797Z,-2.54
2022-11-18T19:09:26.060Z,-2.50
2022-11-18T19:12:32.448Z,-2.51
2022-11-18T19:15:20.268Z,-2.52
2022-11-18T19:18:08.181Z,-2.55
2022-11-18T19:20:55.722Z,-2.63
2022-11-18T19:23:45.925Z,-2.66
2022-11-18T19:26:33.517Z,-2.66
2022-11-18T19:29:24.517Z,-2.67
2022-11-18T19:32:13.831Z,-2.64
2022-11-18T19:35:01.331Z,-2.65
2022-11-18T19:37:48.819Z,-2.68
2022-11-18T19:40:36.226Z,-2.70
2022-11-18T19:43:23.862Z,-2.73
2022-11-18T19:46:11.501Z,-2.76
2022-11-18T19:48:59.089Z,-2.75
2022-11-18T19:51:49.617Z,-2.74
2022-11-18T19:54:36.970Z,-2.81
2022-11-18T19:57:24.900Z,-2.89
2022-11-18T20:00:12.484Z,-2.99
2022-11-18T20:03:00.809Z,-3.04
2022-11-18T20:05:55.188Z,-3.09
2022-11-18T20:08:43.358Z,-3.11
2022-11-18T20:11:30.738Z,-3.13
2022-11-18T20:14:18.064Z,-3.21
2022-11-18T20:17:05.561Z,-3.26
2022-11-18T20:19:52.915Z,-3.27
2022-11-18T20:22:40.294Z,-3.28
2022-11-18T20:25:27.806Z,-3.32
2022-11-18T20:28:15.291Z,-3.37
2022-11-18T20:31:03.624Z,-3.42
2022-11-18T20:33:52.344Z,-3.48
2022-11-18T20:36:40.177Z,-3.53
2022-11-18T20:39:28.693Z,-3.57
2022-11-18T20:42:34.949Z,-3.59
2022-11-18T20:45:22.384Z,-3.60
2022-11-18T20:48:11.129Z,-3.61
2022-11-18T20:51:02.265Z,-3.65
2022-11-18T20:53:50.474Z,-3.71
2022-11-18T20:56:38.054Z,-3.77
2022-11-18T20:59:25.658Z,-3.79
2022-11-18T21:02:13.036Z,-3.82
2022-11-18T21:05:00.494Z,-3.86
2022-11-18T21:07:49.210Z,-3.91
2022-11-18T21:10:36.928Z,-3.94
2022-11-18T21:13:43.048Z,-3.97
2022-11-18T21:16:30.469Z,-4.04
2022-11-18T21:19:18.280Z,-4.13
2022-11-18T21:22:05.990Z,-4.18
2022-11-18T21:24:53.468Z,-4.26
2022-11-18T21:27:41.612Z,-4.29
2022-11-18T21:30:28.960Z,-4.30
2022-11-18T21:33:16.371Z,-4.33
2022-11-18T21:36:03.780Z,-4.39
2022-11-18T21:38:51.273Z,-4.39
2022-11-18T21:41:39.310Z,-4.30
2022-11-18T21:44:28.350Z,-4.19
2022-11-18T21:47:16.005Z,-4.05
2022-11-18T21:50:03.449Z,-3.93
2022-11-18T21:52:51.115Z,-3.82
2022-11-18T21:55:38.545Z,-3.73
2022-11-18T21:58:25.881Z,-3.73
2022-11-18T22:01:17.772Z,-3.75
2022-11-18T22:04:05.455Z,-3.78
2022-11-18T22:06:52.821Z,-3.83
2022-11-18T22:09:40.187Z,-3.86
2022-11-18T22:12:27.637Z,-3.89
2022-11-18T22:15:15.128Z,-3.90
2022-11-18T22:18:02.505Z,-3.95
2022-11-18T22:20:49.802Z,-3.95
2022-11-18T22:23:37.258Z,-3.91
2022-11-18T22:26:24.697Z,-3.88
2022-11-18T22:29:12.114Z,-3.82
2022-11-18T22:31:59.538Z,-3.75
2022-11-18T22:34:51.629Z,-3.65
2022-11-18T22:37:39.450Z,-3.59
2022-11-18T22:40:26.868Z,-3.50
2022-11-18T22:43:14.259Z,-3.44
2022-11-18T22:46:06.697Z,-3.38
2022-11-18T22:48:55.642Z,-3.32
2022-11-18T22:51:43.065Z,-3.28
2022-11-18T22:54:38.930Z,-3.27
2022-11-18T22:57:27.148Z,-3.22
2022-11-18T23:00:15.745Z,-3.20
2022-11-18T23:03:03.143Z,-3.19
2022-11-18T23:05:50.538Z,-3.18
2022-11-18T23:08:39.126Z,-3.18
2022-11-18T23:11:45.202Z,-3.19
2022-11-18T23:14:32.693Z,-3.22
2022-11-18T23:17:20.170Z,-3.21
2022-11-18T23:20:08.167Z,-3.22
2022-11-18T23:22:55.586Z,-3.22
2022-11-18T23:25:42.974Z,-3.21
2022-11-18T23:28:30.692Z,-3.18
2022-11-18T23:31:22.381Z,-3.17
2022-11-18T23:34:11.894Z,-3.14
2022-11-18T23:36:59.375Z,-3.16
2022-11-18T23:39:46.694Z,-3.15
2022-11-18T23:42:34.025Z,-3.16
2022-11-18T23:45:21.472Z,-3.19
2022-11-18T23:48:08.815Z,-3.21
2022-11-18T23:51:06.654Z,-3.19
2022-11-18T23:53:55.138Z,-3.20
2022-11-18T23:56:42.538Z,-3.20
2022-11-18T23:59:29.941Z,-3.19
